sensor_id;sensor_type;location;lat;lon;timestamp;temperature;humidity
10903;DHT22;5504;47.312;11.060;2023-05-07T00:02:08;15.10;92.00
10903;DHT22;5504;47.312;11.060;2023-05-07T00:04:34;14.90;92.10
10903;DHT22;5504;47.312;11.060;2023-05-07T00:07:03;15.00;92.10
10903;DHT22;5504;47.312;11.060;2023-05-07T00:09:29;15.00;92.00
10903;DHT22;5504;47.312;11.060;2023-05-07T00:11:54;14.90;91.80
10903;DHT22;5504;47.312;11.060;2023-05-07T00:14:20;15.00;92.20
10903;DHT22;5504;47.312;11.060;2023-05-07T00:16:46;15.00;92.30
10903;DHT22;5504;47.312;11.060;2023-05-07T00:19:12;15.10;92.40
10903;DHT22;5504;47.312;11.060;2023-05-07T00:21:38;14.90;92.20
10903;DHT22;5504;47.312;11.060;2023-05-07T00:24:03;15.00;92.50
10903;DHT22;5504;47.312;11.060;2023-05-07T00:26:29;15.30;92.40
10903;DHT22;5504;47.312;11.060;2023-05-07T00:28:55;15.40;92.00
10903;DHT22;5504;47.312;11.060;2023-05-07T00:31:21;15.30;92.10
10903;DHT22;5504;47.312;11.060;2023-05-07T00:33:46;15.20;92.20
10903;DHT22;5504;47.312;11.060;2023-05-07T00:36:12;15.30;92.20
10903;DHT22;5504;47.312;11.060;2023-05-07T00:38:38;15.20;92.10
10903;DHT22;5504;47.312;11.060;2023-05-07T00:41:04;15.10;92.00
10903;DHT22;5504;47.312;11.060;2023-05-07T00:43:29;15.10;92.30
10903;DHT22;5504;47.312;11.060;2023-05-07T00:45:55;15.10;92.40
10903;DHT22;5504;47.312;11.060;2023-05-07T00:48:22;15.20;92.60
10903;DHT22;5504;47.312;11.060;2023-05-07T00:50:49;15.20;92.60
10903;DHT22;5504;47.312;11.060;2023-05-07T00:53:15;15.10;92.40
10903;DHT22;5504;47.312;11.060;2023-05-07T00:55:41;15.10;92.20
10903;DHT22;5504;47.312;11.060;2023-05-07T00:58:07;15.00;92.30
10903;DHT22;5504;47.312;11.060;2023-05-07T01:00:33;15.00;92.50
10903;DHT22;5504;47.312;11.060;2023-05-07T01:02:59;14.90;92.40
10903;DHT22;5504;47.312;11.060;2023-05-07T01:05:26;14.90;92.70
10903;DHT22;5504;47.312;11.060;2023-05-07T01:07:54;14.80;92.90
10903;DHT22;5504;47.312;11.060;2023-05-07T01:10:20;14.70;92.90
10903;DHT22;5504;47.312;11.060;2023-05-07T01:12:48;14.80;93.00
10903;DHT22;5504;47.312;11.060;2023-05-07T01:15:15;14.80;93.00
10903;DHT22;5504;47.312;11.060;2023-05-07T01:17:42;14.90;93.00
10903;DHT22;5504;47.312;11.060;2023-05-07T01:20:08;14.90;92.90
10903;DHT22;5504;47.312;11.060;2023-05-07T01:22:37;14.80;92.70
10903;DHT22;5504;47.312;11.060;2023-05-07T01:25:05;14.80;92.80
10903;DHT22;5504;47.312;11.060;2023-05-07T01:27:31;14.80;93.00
10903;DHT22;5504;47.312;11.060;2023-05-07T01:29:58;14.80;93.00
10903;DHT22;5504;47.312;11.060;2023-05-07T01:32:38;14.80;93.20
10903;DHT22;5504;47.312;11.060;2023-05-07T01:35:09;14.60;93.00
10903;DHT22;5504;47.312;11.060;2023-05-07T01:37:36;14.60;93.00
10903;DHT22;5504;47.312;11.060;2023-05-07T01:40:03;14.60;93.40
10903;DHT22;5504;47.312;11.060;2023-05-07T01:42:30;14.60;93.50
10903;DHT22;5504;47.312;11.060;2023-05-07T01:44:56;14.60;93.30
10903;DHT22;5504;47.312;11.060;2023-05-07T01:47:23;14.50;93.30
10903;DHT22;5504;47.312;11.060;2023-05-07T01:49:49;14.40;93.30
10903;DHT22;5504;47.312;11.060;2023-05-07T01:52:15;14.40;93.30
10903;DHT22;5504;47.312;11.060;2023-05-07T01:54:41;14.40;93.30
10903;DHT22;5504;47.312;11.060;2023-05-07T01:57:07;14.60;93.20
10903;DHT22;5504;47.312;11.060;2023-05-07T01:59:32;14.50;93.00
10903;DHT22;5504;47.312;11.060;2023-05-07T02:01:58;14.40;93.20
10903;DHT22;5504;47.312;11.060;2023-05-07T02:04:24;14.20;93.10
10903;DHT22;5504;47.312;11.060;2023-05-07T02:06:50;14.10;93.20
10903;DHT22;5504;47.312;11.060;2023-05-07T02:09:15;14.20;93.50
10903;DHT22;5504;47.312;11.060;2023-05-07T02:11:41;14.10;93.40
10903;DHT22;5504;47.312;11.060;2023-05-07T02:14:07;14.10;93.50
10903;DHT22;5504;47.312;11.060;2023-05-07T02:16:32;14.00;93.40
10903;DHT22;5504;47.312;11.060;2023-05-07T02:18:58;13.90;93.40
10903;DHT22;5504;47.312;11.060;2023-05-07T02:21:25;13.90;93.50
10903;DHT22;5504;47.312;11.060;2023-05-07T02:23:50;14.00;93.80
10903;DHT22;5504;47.312;11.060;2023-05-07T02:26:16;13.90;93.70
10903;DHT22;5504;47.312;11.060;2023-05-07T02:28:42;13.80;93.80
10903;DHT22;5504;47.312;11.060;2023-05-07T02:31:08;13.80;93.90
10903;DHT22;5504;47.312;11.060;2023-05-07T02:33:33;13.70;94.10
10903;DHT22;5504;47.312;11.060;2023-05-07T02:36:10;13.80;94.30
10903;DHT22;5504;47.312;11.060;2023-05-07T02:38:36;13.80;94.00
10903;DHT22;5504;47.312;11.060;2023-05-07T02:41:02;13.70;93.80
10903;DHT22;5504;47.312;11.060;2023-05-07T02:43:28;13.70;94.00
10903;DHT22;5504;47.312;11.060;2023-05-07T02:46:07;13.70;94.10
10903;DHT22;5504;47.312;11.060;2023-05-07T02:48:34;13.70;94.20
10903;DHT22;5504;47.312;11.060;2023-05-07T02:51:00;13.70;94.10
10903;DHT22;5504;47.312;11.060;2023-05-07T02:53:26;13.70;94.00
10903;DHT22;5504;47.312;11.060;2023-05-07T02:55:57;13.70;93.90
10903;DHT22;5504;47.312;11.060;2023-05-07T02:58:23;13.70;93.80
10903;DHT22;5504;47.312;11.060;2023-05-07T03:00:50;13.80;93.90
10903;DHT22;5504;47.312;11.060;2023-05-07T03:03:16;13.80;93.70
10903;DHT22;5504;47.312;11.060;2023-05-07T03:05:42;13.80;93.70
10903;DHT22;5504;47.312;11.060;2023-05-07T03:08:09;13.80;93.50
10903;DHT22;5504;47.312;11.060;2023-05-07T03:10:36;13.70;93.50
10903;DHT22;5504;47.312;11.060;2023-05-07T03:13:02;13.70;93.90
10903;DHT22;5504;47.312;11.060;2023-05-07T03:15:28;13.70;93.60
10903;DHT22;5504;47.312;11.060;2023-05-07T03:17:53;13.60;93.60
10903;DHT22;5504;47.312;11.060;2023-05-07T03:20:19;13.50;93.70
10903;DHT22;5504;47.312;11.060;2023-05-07T03:22:45;13.50;94.00
10903;DHT22;5504;47.312;11.060;2023-05-07T03:25:12;13.50;94.00
10903;DHT22;5504;47.312;11.060;2023-05-07T03:27:38;13.40;94.10
10903;DHT22;5504;47.312;11.060;2023-05-07T03:30:04;13.40;94.10
10903;DHT22;5504;47.312;11.060;2023-05-07T03:32:30;13.40;94.00
10903;DHT22;5504;47.312;11.060;2023-05-07T03:34:55;13.30;94.20
10903;DHT22;5504;47.312;11.060;2023-05-07T03:37:21;13.20;94.20
10903;DHT22;5504;47.312;11.060;2023-05-07T03:39:47;13.20;94.30
10903;DHT22;5504;47.312;11.060;2023-05-07T03:42:13;13.10;94.20
10903;DHT22;5504;47.312;11.060;2023-05-07T03:44:38;13.10;94.50
10903;DHT22;5504;47.312;11.060;2023-05-07T03:47:04;13.20;94.50
10903;DHT22;5504;47.312;11.060;2023-05-07T03:49:30;13.20;94.50
10903;DHT22;5504;47.312;11.060;2023-05-07T03:51:55;13.20;94.30
10903;DHT22;5504;47.312;11.060;2023-05-07T03:54:22;13.20;94.30
10903;DHT22;5504;47.312;11.060;2023-05-07T03:56:47;13.20;94.00
10903;DHT22;5504;47.312;11.060;2023-05-07T03:59:13;13.10;94.10
10903;DHT22;5504;47.312;11.060;2023-05-07T04:01:39;13.10;94.40
10903;DHT22;5504;47.312;11.060;2023-05-07T04:04:05;13.10;94.40
10903;DHT22;5504;47.312;11.060;2023-05-07T04:06:31;13.10;94.40
10903;DHT22;5504;47.312;11.060;2023-05-07T04:08:57;13.10;94.40
10903;DHT22;5504;47.312;11.060;2023-05-07T04:11:22;13.10;94.50
10903;DHT22;5504;47.312;11.060;2023-05-07T04:13:48;13.20;94.60
10903;DHT22;5504;47.312;11.060;2023-05-07T04:16:14;13.30;94.40
10903;DHT22;5504;47.312;11.060;2023-05-07T04:18:39;13.20;94.10
10903;DHT22;5504;47.312;11.060;2023-05-07T04:21:05;13.10;94.30
10903;DHT22;5504;47.312;11.060;2023-05-07T04:23:31;13.20;94.50
10903;DHT22;5504;47.312;11.060;2023-05-07T04:25:57;13.20;94.40
10903;DHT22;5504;47.312;11.060;2023-05-07T04:28:23;13.10;94.30
10903;DHT22;5504;47.312;11.060;2023-05-07T04:30:49;13.10;94.20
10903;DHT22;5504;47.312;11.060;2023-05-07T04:33:15;13.10;94.40
10903;DHT22;5504;47.312;11.060;2023-05-07T04:35:43;13.10;94.40
10903;DHT22;5504;47.312;11.060;2023-05-07T04:38:09;13.20;94.50
10903;DHT22;5504;47.312;11.060;2023-05-07T04:40:38;13.40;94.50
10903;DHT22;5504;47.312;11.060;2023-05-07T04:43:04;13.50;94.60
10903;DHT22;5504;47.312;11.060;2023-05-07T04:45:30;13.50;94.30
10903;DHT22;5504;47.312;11.060;2023-05-07T04:47:55;13.50;94.30
10903;DHT22;5504;47.312;11.060;2023-05-07T04:50:21;13.50;94.00
10903;DHT22;5504;47.312;11.060;2023-05-07T04:52:49;13.50;94.00
10903;DHT22;5504;47.312;11.060;2023-05-07T04:55:15;13.50;94.10
10903;DHT22;5504;47.312;11.060;2023-05-07T04:57:41;13.50;94.40
10903;DHT22;5504;47.312;11.060;2023-05-07T05:00:07;13.80;94.50
10903;DHT22;5504;47.312;11.060;2023-05-07T05:02:39;13.90;93.70
10903;DHT22;5504;47.312;11.060;2023-05-07T05:05:05;14.00;93.70
10903;DHT22;5504;47.312;11.060;2023-05-07T05:07:31;14.20;93.30
10903;DHT22;5504;47.312;11.060;2023-05-07T05:09:57;14.30;93.20
10903;DHT22;5504;47.312;11.060;2023-05-07T05:12:23;14.30;93.30
10903;DHT22;5504;47.312;11.060;2023-05-07T05:14:48;14.50;93.50
10903;DHT22;5504;47.312;11.060;2023-05-07T05:17:14;14.70;93.30
10903;DHT22;5504;47.312;11.060;2023-05-07T05:19:40;14.70;93.00
10903;DHT22;5504;47.312;11.060;2023-05-07T05:22:06;14.70;93.10
10903;DHT22;5504;47.312;11.060;2023-05-07T05:24:32;14.70;93.20
10903;DHT22;5504;47.312;11.060;2023-05-07T05:26:57;14.80;93.60
10903;DHT22;5504;47.312;11.060;2023-05-07T05:29:25;14.90;93.80
10903;DHT22;5504;47.312;11.060;2023-05-07T05:31:51;15.00;93.50
10903;DHT22;5504;47.312;11.060;2023-05-07T05:34:16;15.20;93.10
10903;DHT22;5504;47.312;11.060;2023-05-07T05:36:45;15.50;92.60
10903;DHT22;5504;47.312;11.060;2023-05-07T05:39:10;15.60;92.70
10903;DHT22;5504;47.312;11.060;2023-05-07T05:41:36;15.60;92.50
10903;DHT22;5504;47.312;11.060;2023-05-07T05:44:02;15.60;92.20
10903;DHT22;5504;47.312;11.060;2023-05-07T05:46:28;15.70;92.70
10903;DHT22;5504;47.312;11.060;2023-05-07T05:48:53;15.70;92.30
10903;DHT22;5504;47.312;11.060;2023-05-07T05:51:20;15.70;92.20
10903;DHT22;5504;47.312;11.060;2023-05-07T05:53:46;15.90;92.00
10903;DHT22;5504;47.312;11.060;2023-05-07T05:56:11;16.00;91.50
10903;DHT22;5504;47.312;11.060;2023-05-07T05:58:37;16.10;91.30
10903;DHT22;5504;47.312;11.060;2023-05-07T06:01:03;16.20;91.50
10903;DHT22;5504;47.312;11.060;2023-05-07T06:03:29;16.50;91.40
10903;DHT22;5504;47.312;11.060;2023-05-07T06:05:54;16.80;90.90
10903;DHT22;5504;47.312;11.060;2023-05-07T06:08:20;16.80;90.20
10903;DHT22;5504;47.312;11.060;2023-05-07T06:10:46;17.10;90.50
10903;DHT22;5504;47.312;11.060;2023-05-07T06:13:12;16.60;88.40
10903;DHT22;5504;47.312;11.060;2023-05-07T06:15:37;16.50;88.60
10903;DHT22;5504;47.312;11.060;2023-05-07T06:18:03;16.50;89.50
10903;DHT22;5504;47.312;11.060;2023-05-07T06:20:28;16.80;90.20
10903;DHT22;5504;47.312;11.060;2023-05-07T06:22:54;16.80;87.10
10903;DHT22;5504;47.312;11.060;2023-05-07T06:25:20;17.30;90.10
10903;DHT22;5504;47.312;11.060;2023-05-07T06:27:45;18.10;89.30
10903;DHT22;5504;47.312;11.060;2023-05-07T06:30:12;18.80;85.20
10903;DHT22;5504;47.312;11.060;2023-05-07T06:32:37;18.60;82.40
10903;DHT22;5504;47.312;11.060;2023-05-07T06:35:03;18.50;81.70
10903;DHT22;5504;47.312;11.060;2023-05-07T06:37:29;18.70;82.90
10903;DHT22;5504;47.312;11.060;2023-05-07T06:39:54;18.70;82.20
10903;DHT22;5504;47.312;11.060;2023-05-07T06:42:20;18.80;81.90
10903;DHT22;5504;47.312;11.060;2023-05-07T06:44:46;19.00;80.70
10903;DHT22;5504;47.312;11.060;2023-05-07T06:47:11;18.80;79.90
10903;DHT22;5504;47.312;11.060;2023-05-07T06:49:37;18.90;78.60
10903;DHT22;5504;47.312;11.060;2023-05-07T06:52:03;19.20;80.10
10903;DHT22;5504;47.312;11.060;2023-05-07T06:54:29;18.80;76.60
10903;DHT22;5504;47.312;11.060;2023-05-07T06:56:55;18.80;79.10
10903;DHT22;5504;47.312;11.060;2023-05-07T06:59:20;17.80;77.90
10903;DHT22;5504;47.312;11.060;2023-05-07T07:01:46;18.10;80.20
10903;DHT22;5504;47.312;11.060;2023-05-07T07:04:12;17.90;77.60
10903;DHT22;5504;47.312;11.060;2023-05-07T07:06:37;18.10;78.90
10903;DHT22;5504;47.312;11.060;2023-05-07T07:09:03;18.50;81.30
10903;DHT22;5504;47.312;11.060;2023-05-07T07:11:29;19.10;82.10
10903;DHT22;5504;47.312;11.060;2023-05-07T07:13:55;19.50;78.40
10903;DHT22;5504;47.312;11.060;2023-05-07T07:16:21;20.10;77.00
10903;DHT22;5504;47.312;11.060;2023-05-07T07:18:47;20.60;76.00
10903;DHT22;5504;47.312;11.060;2023-05-07T07:21:12;21.00;73.50
10903;DHT22;5504;47.312;11.060;2023-05-07T07:23:38;21.20;73.40
10903;DHT22;5504;47.312;11.060;2023-05-07T07:26:04;21.20;72.00
10903;DHT22;5504;47.312;11.060;2023-05-07T07:28:31;21.10;73.10
10903;DHT22;5504;47.312;11.060;2023-05-07T07:30:57;20.70;71.60
10903;DHT22;5504;47.312;11.060;2023-05-07T07:33:22;20.70;74.80
10903;DHT22;5504;47.312;11.060;2023-05-07T07:35:48;21.00;72.80
10903;DHT22;5504;47.312;11.060;2023-05-07T07:38:13;20.90;70.90
10903;DHT22;5504;47.312;11.060;2023-05-07T07:40:39;20.80;71.30
10903;DHT22;5504;47.312;11.060;2023-05-07T07:43:05;19.90;71.80
10903;DHT22;5504;47.312;11.060;2023-05-07T07:45:31;19.20;73.50
10903;DHT22;5504;47.312;11.060;2023-05-07T07:47:57;20.20;76.90
10903;DHT22;5504;47.312;11.060;2023-05-07T07:50:22;20.70;72.10
10903;DHT22;5504;47.312;11.060;2023-05-07T07:52:48;21.30;70.50
10903;DHT22;5504;47.312;11.060;2023-05-07T07:55:14;21.70;70.70
10903;DHT22;5504;47.312;11.060;2023-05-07T07:57:43;22.10;68.50
10903;DHT22;5504;47.312;11.060;2023-05-07T08:00:09;22.50;65.00
10903;DHT22;5504;47.312;11.060;2023-05-07T08:02:35;22.30;64.10
10903;DHT22;5504;47.312;11.060;2023-05-07T08:05:01;22.20;63.20
10903;DHT22;5504;47.312;11.060;2023-05-07T08:07:26;21.20;64.00
10903;DHT22;5504;47.312;11.060;2023-05-07T08:09:52;22.30;70.40
10903;DHT22;5504;47.312;11.060;2023-05-07T08:12:18;22.30;65.20
10903;DHT22;5504;47.312;11.060;2023-05-07T08:14:44;22.50;64.10
10903;DHT22;5504;47.312;11.060;2023-05-07T08:17:09;23.50;65.50
10903;DHT22;5504;47.312;11.060;2023-05-07T08:19:35;23.50;66.00
10903;DHT22;5504;47.312;11.060;2023-05-07T08:22:03;22.80;59.30
10903;DHT22;5504;47.312;11.060;2023-05-07T08:24:29;23.70;65.20
10903;DHT22;5504;47.312;11.060;2023-05-07T08:26:55;24.30;59.70
10903;DHT22;5504;47.312;11.060;2023-05-07T08:29:21;23.70;61.80
10903;DHT22;5504;47.312;11.060;2023-05-07T08:31:47;24.40;58.50
10903;DHT22;5504;47.312;11.060;2023-05-07T08:34:12;23.90;59.30
10903;DHT22;5504;47.312;11.060;2023-05-07T08:36:38;24.80;60.20
10903;DHT22;5504;47.312;11.060;2023-05-07T08:39:04;25.10;58.10
10903;DHT22;5504;47.312;11.060;2023-05-07T08:41:30;25.30;57.90
10903;DHT22;5504;47.312;11.060;2023-05-07T08:43:58;25.00;57.50
10903;DHT22;5504;47.312;11.060;2023-05-07T08:46:25;25.40;57.40
10903;DHT22;5504;47.312;11.060;2023-05-07T08:48:52;25.50;57.10
10903;DHT22;5504;47.312;11.060;2023-05-07T08:51:20;26.00;56.70
10903;DHT22;5504;47.312;11.060;2023-05-07T08:53:47;26.40;55.60
10903;DHT22;5504;47.312;11.060;2023-05-07T08:56:17;26.70;56.10
10903;DHT22;5504;47.312;11.060;2023-05-07T08:58:43;26.20;51.10
10903;DHT22;5504;47.312;11.060;2023-05-07T09:01:12;24.20;54.10
10903;DHT22;5504;47.312;11.060;2023-05-07T09:03:39;23.50;55.80
10903;DHT22;5504;47.312;11.060;2023-05-07T09:06:05;23.00;55.70
10903;DHT22;5504;47.312;11.060;2023-05-07T09:08:33;23.90;59.00
10903;DHT22;5504;47.312;11.060;2023-05-07T09:10:59;24.40;54.80
10903;DHT22;5504;47.312;11.060;2023-05-07T09:13:24;24.90;57.30
10903;DHT22;5504;47.312;11.060;2023-05-07T09:15:50;25.90;57.20
10903;DHT22;5504;47.312;11.060;2023-05-07T09:18:16;24.60;53.30
10903;DHT22;5504;47.312;11.060;2023-05-07T09:20:42;24.40;54.60
10903;DHT22;5504;47.312;11.060;2023-05-07T09:23:08;24.80;55.10
10903;DHT22;5504;47.312;11.060;2023-05-07T09:25:35;24.70;54.90
10903;DHT22;5504;47.312;11.060;2023-05-07T09:28:02;25.60;57.40
10903;DHT22;5504;47.312;11.060;2023-05-07T09:30:32;26.30;55.50
10903;DHT22;5504;47.312;11.060;2023-05-07T09:32:59;26.80;55.10
10903;DHT22;5504;47.312;11.060;2023-05-07T09:35:25;25.50;50.80
10903;DHT22;5504;47.312;11.060;2023-05-07T09:37:58;24.00;53.90
10903;DHT22;5504;47.312;11.060;2023-05-07T09:40:25;25.10;57.20
10903;DHT22;5504;47.312;11.060;2023-05-07T09:42:51;25.70;53.00
10903;DHT22;5504;47.312;11.060;2023-05-07T09:45:27;25.50;55.40
10903;DHT22;5504;47.312;11.060;2023-05-07T09:47:57;26.20;53.40
10903;DHT22;5504;47.312;11.060;2023-05-07T09:50:28;27.00;56.20
10903;DHT22;5504;47.312;11.060;2023-05-07T09:52:56;27.30;53.70
10903;DHT22;5504;47.312;11.060;2023-05-07T09:55:22;27.80;53.50
10903;DHT22;5504;47.312;11.060;2023-05-07T09:57:52;28.20;52.10
10903;DHT22;5504;47.312;11.060;2023-05-07T10:00:22;28.70;53.70
10903;DHT22;5504;47.312;11.060;2023-05-07T10:02:50;28.90;52.40
10903;DHT22;5504;47.312;11.060;2023-05-07T10:05:18;29.20;51.00
10903;DHT22;5504;47.312;11.060;2023-05-07T10:07:45;29.20;48.70
10903;DHT22;5504;47.312;11.060;2023-05-07T10:10:11;28.50;49.10
10903;DHT22;5504;47.312;11.060;2023-05-07T10:12:38;28.90;50.70
10903;DHT22;5504;47.312;11.060;2023-05-07T10:15:09;29.20;49.10
10903;DHT22;5504;47.312;11.060;2023-05-07T10:17:39;29.50;48.00
10903;DHT22;5504;47.312;11.060;2023-05-07T10:20:06;29.10;49.70
10903;DHT22;5504;47.312;11.060;2023-05-07T10:22:46;29.30;49.50
10903;DHT22;5504;47.312;11.060;2023-05-07T10:25:27;29.20;46.20
10903;DHT22;5504;47.312;11.060;2023-05-07T10:27:55;29.10;50.00
10903;DHT22;5504;47.312;11.060;2023-05-07T10:33:02;27.40;46.60
10903;DHT22;5504;47.312;11.060;2023-05-07T10:35:38;27.40;50.30
10903;DHT22;5504;47.312;11.060;2023-05-07T10:38:05;27.60;49.10
10903;DHT22;5504;47.312;11.060;2023-05-07T10:40:31;28.00;49.50
10903;DHT22;5504;47.312;11.060;2023-05-07T10:42:58;27.60;45.90
10903;DHT22;5504;47.312;11.060;2023-05-07T10:45:26;27.90;51.70
10903;DHT22;5504;47.312;11.060;2023-05-07T10:48:11;28.20;49.40
10903;DHT22;5504;47.312;11.060;2023-05-07T10:50:41;28.50;49.50
10903;DHT22;5504;47.312;11.060;2023-05-07T10:58:43;28.40;50.50
10903;DHT22;5504;47.312;11.060;2023-05-07T11:01:09;28.30;51.00
10903;DHT22;5504;47.312;11.060;2023-05-07T11:04:15;28.40;51.20
10903;DHT22;5504;47.312;11.060;2023-05-07T11:06:41;28.40;51.00
10903;DHT22;5504;47.312;11.060;2023-05-07T11:09:06;28.50;50.20
10903;DHT22;5504;47.312;11.060;2023-05-07T11:11:50;28.50;50.40
10903;DHT22;5504;47.312;11.060;2023-05-07T11:17:06;27.60;49.30
10903;DHT22;5504;47.312;11.060;2023-05-07T11:19:50;27.80;50.30
10903;DHT22;5504;47.312;11.060;2023-05-07T11:22:45;26.80;46.20
10903;DHT22;5504;47.312;11.060;2023-05-07T11:25:11;26.50;47.20
10903;DHT22;5504;47.312;11.060;2023-05-07T11:27:42;26.70;50.70
10903;DHT22;5504;47.312;11.060;2023-05-07T11:30:09;27.00;48.60
10903;DHT22;5504;47.312;11.060;2023-05-07T11:32:35;27.50;50.10
10903;DHT22;5504;47.312;11.060;2023-05-07T11:35:01;27.90;50.30
10903;DHT22;5504;47.312;11.060;2023-05-07T11:37:27;27.40;45.00
10903;DHT22;5504;47.312;11.060;2023-05-07T11:40:08;26.60;46.30
10903;DHT22;5504;47.312;11.060;2023-05-07T11:42:37;26.40;49.90
10903;DHT22;5504;47.312;11.060;2023-05-07T11:45:04;26.30;46.60
10903;DHT22;5504;47.312;11.060;2023-05-07T11:47:31;26.90;49.90
10903;DHT22;5504;47.312;11.060;2023-05-07T11:50:05;27.40;49.20
10903;DHT22;5504;47.312;11.060;2023-05-07T11:52:31;28.00;50.70
10903;DHT22;5504;47.312;11.060;2023-05-07T11:54:59;28.40;49.40
10903;DHT22;5504;47.312;11.060;2023-05-07T11:57:28;28.80;50.70
10903;DHT22;5504;47.312;11.060;2023-05-07T11:59:58;29.10;49.70
10903;DHT22;5504;47.312;11.060;2023-05-07T12:02:25;29.30;48.90
10903;DHT22;5504;47.312;11.060;2023-05-07T12:04:52;29.50;46.40
10903;DHT22;5504;47.312;11.060;2023-05-07T12:07:17;29.50;46.00
10903;DHT22;5504;47.312;11.060;2023-05-07T12:09:44;29.60;48.50
10903;DHT22;5504;47.312;11.060;2023-05-07T12:12:11;29.80;47.10
10903;DHT22;5504;47.312;11.060;2023-05-07T12:14:40;30.10;49.40
10903;DHT22;5504;47.312;11.060;2023-05-07T12:17:10;30.50;46.80
10903;DHT22;5504;47.312;11.060;2023-05-07T12:19:38;29.50;41.90
10903;DHT22;5504;47.312;11.060;2023-05-07T12:22:04;27.90;46.60
10903;DHT22;5504;47.312;11.060;2023-05-07T12:24:47;28.60;46.20
10903;DHT22;5504;47.312;11.060;2023-05-07T12:27:15;29.00;42.40
10903;DHT22;5504;47.312;11.060;2023-05-07T12:29:47;29.30;46.60
10903;DHT22;5504;47.312;11.060;2023-05-07T12:32:14;30.00;47.10
10903;DHT22;5504;47.312;11.060;2023-05-07T12:34:40;30.60;47.10
10903;DHT22;5504;47.312;11.060;2023-05-07T12:37:06;31.00;45.50
10903;DHT22;5504;47.312;11.060;2023-05-07T12:39:32;31.00;42.00
10903;DHT22;5504;47.312;11.060;2023-05-07T12:41:59;31.10;44.00
10903;DHT22;5504;47.312;11.060;2023-05-07T12:44:29;31.10;45.10
10903;DHT22;5504;47.312;11.060;2023-05-07T12:46:55;31.10;44.30
10903;DHT22;5504;47.312;11.060;2023-05-07T12:49:21;31.30;45.00
10903;DHT22;5504;47.312;11.060;2023-05-07T12:51:48;31.60;43.60
10903;DHT22;5504;47.312;11.060;2023-05-07T12:54:35;31.70;44.30
10903;DHT22;5504;47.312;11.060;2023-05-07T12:57:04;32.00;43.50
10903;DHT22;5504;47.312;11.060;2023-05-07T12:59:40;31.80;41.50
10903;DHT22;5504;47.312;11.060;2023-05-07T13:02:07;31.50;41.00
10903;DHT22;5504;47.312;11.060;2023-05-07T13:04:33;29.40;38.90
10903;DHT22;5504;47.312;11.060;2023-05-07T13:06:59;28.70;44.10
10903;DHT22;5504;47.312;11.060;2023-05-07T13:09:25;28.90;46.80
10903;DHT22;5504;47.312;11.060;2023-05-07T13:11:51;29.10;45.30
10903;DHT22;5504;47.312;11.060;2023-05-07T13:14:17;28.40;41.50
10903;DHT22;5504;47.312;11.060;2023-05-07T13:16:43;28.40;45.70
10903;DHT22;5504;47.312;11.060;2023-05-07T13:19:09;28.30;42.50
10903;DHT22;5504;47.312;11.060;2023-05-07T13:21:34;27.90;41.60
10903;DHT22;5504;47.312;11.060;2023-05-07T13:24:00;28.40;44.90
10903;DHT22;5504;47.312;11.060;2023-05-07T13:26:26;28.40;40.60
10903;DHT22;5504;47.312;11.060;2023-05-07T13:28:53;28.40;44.10
10903;DHT22;5504;47.312;11.060;2023-05-07T13:31:18;27.70;44.00
10903;DHT22;5504;47.312;11.060;2023-05-07T13:33:46;27.70;46.10
10903;DHT22;5504;47.312;11.060;2023-05-07T13:36:12;27.70;45.00
10903;DHT22;5504;47.312;11.060;2023-05-07T13:38:37;27.90;46.90
10903;DHT22;5504;47.312;11.060;2023-05-07T13:41:03;27.20;45.60
10903;DHT22;5504;47.312;11.060;2023-05-07T13:43:28;26.60;47.10
10903;DHT22;5504;47.312;11.060;2023-05-07T13:45:54;26.50;47.70
10903;DHT22;5504;47.312;11.060;2023-05-07T13:48:20;26.20;48.30
10903;DHT22;5504;47.312;11.060;2023-05-07T13:50:53;26.10;48.50
10903;DHT22;5504;47.312;11.060;2023-05-07T13:53:19;25.60;47.20
10903;DHT22;5504;47.312;11.060;2023-05-07T13:55:45;25.60;48.50
10903;DHT22;5504;47.312;11.060;2023-05-07T13:58:11;25.80;49.10
10903;DHT22;5504;47.312;11.060;2023-05-07T14:00:36;25.80;48.30
10903;DHT22;5504;47.312;11.060;2023-05-07T14:03:04;25.80;47.40
10903;DHT22;5504;47.312;11.060;2023-05-07T14:05:30;25.90;49.00
10903;DHT22;5504;47.312;11.060;2023-05-07T14:07:57;25.90;49.20
10903;DHT22;5504;47.312;11.060;2023-05-07T14:10:24;25.70;48.90
10903;DHT22;5504;47.312;11.060;2023-05-07T14:12:49;25.60;49.60
10903;DHT22;5504;47.312;11.060;2023-05-07T14:15:15;25.20;47.70
10903;DHT22;5504;47.312;11.060;2023-05-07T14:17:42;25.10;48.90
10903;DHT22;5504;47.312;11.060;2023-05-07T14:20:08;25.20;50.00
10903;DHT22;5504;47.312;11.060;2023-05-07T14:22:36;25.10;50.10
10903;DHT22;5504;47.312;11.060;2023-05-07T14:25:02;25.10;50.00
10903;DHT22;5504;47.312;11.060;2023-05-07T14:27:27;25.10;49.10
10903;DHT22;5504;47.312;11.060;2023-05-07T14:29:53;25.40;50.30
10903;DHT22;5504;47.312;11.060;2023-05-07T14:32:19;25.70;49.80
10903;DHT22;5504;47.312;11.060;2023-05-07T14:34:45;25.70;49.10
10903;DHT22;5504;47.312;11.060;2023-05-07T14:37:12;25.50;51.50
10903;DHT22;5504;47.312;11.060;2023-05-07T14:39:37;25.30;48.50
10903;DHT22;5504;47.312;11.060;2023-05-07T14:42:03;25.10;49.60
10903;DHT22;5504;47.312;11.060;2023-05-07T14:44:29;25.00;49.80
10903;DHT22;5504;47.312;11.060;2023-05-07T14:46:55;25.40;50.00
10903;DHT22;5504;47.312;11.060;2023-05-07T14:49:21;25.30;51.40
10903;DHT22;5504;47.312;11.060;2023-05-07T14:51:47;25.50;52.50
10903;DHT22;5504;47.312;11.060;2023-05-07T14:54:13;24.60;51.40
10903;DHT22;5504;47.312;11.060;2023-05-07T14:56:39;25.00;53.70
10903;DHT22;5504;47.312;11.060;2023-05-07T14:59:06;24.40;50.10
10903;DHT22;5504;47.312;11.060;2023-05-07T15:01:32;24.00;51.70
10903;DHT22;5504;47.312;11.060;2023-05-07T15:03:59;24.10;51.90
10903;DHT22;5504;47.312;11.060;2023-05-07T15:06:25;24.30;54.20
10903;DHT22;5504;47.312;11.060;2023-05-07T15:08:52;24.40;51.90
10903;DHT22;5504;47.312;11.060;2023-05-07T15:11:17;24.20;53.80
10903;DHT22;5504;47.312;11.060;2023-05-07T15:13:43;24.70;54.40
10903;DHT22;5504;47.312;11.060;2023-05-07T15:16:09;24.90;54.80
10903;DHT22;5504;47.312;11.060;2023-05-07T15:18:35;25.10;53.80
10903;DHT22;5504;47.312;11.060;2023-05-07T15:21:01;24.70;54.60
10903;DHT22;5504;47.312;11.060;2023-05-07T15:23:27;24.50;53.10
10903;DHT22;5504;47.312;11.060;2023-05-07T15:25:53;24.40;52.40
10903;DHT22;5504;47.312;11.060;2023-05-07T15:28:19;24.70;53.80
10903;DHT22;5504;47.312;11.060;2023-05-07T15:30:44;24.80;52.60
10903;DHT22;5504;47.312;11.060;2023-05-07T15:33:10;24.90;52.10
10903;DHT22;5504;47.312;11.060;2023-05-07T15:35:36;25.10;54.10
10903;DHT22;5504;47.312;11.060;2023-05-07T15:38:02;24.60;51.50
10903;DHT22;5504;47.312;11.060;2023-05-07T15:40:29;24.50;53.70